Terminal Aerodrome Forecast
Issued by NWS

Home | Current Version | Previous Version | Text Only | Print | Product List | Glossary On
Versions: 1 2 3 4 5 6 7 8 9 10 11 12
000
FTUS46 KMFR 271700
TAFRBG
TAF
KRBG 271735Z 2718/2818 VRB02KT P6SM SKC
     FM272200 35009KT P6SM SKC
     FM280400 36004KT P6SM SKC
     FM281300 00000KT P6SM SCT006
     FM281600 01003KT P6SM SKC=

USA.gov is the U.S. government's official web portal to all federal, state and local government web resources and services.